createdAt,value
2017-07-12T00:00:25.053Z,18.70
2017-07-12T00:02:52.472Z,18.70
2017-07-12T00:05:19.910Z,18.70
2017-07-12T00:07:47.367Z,18.70
2017-07-12T00:10:14.778Z,18.60
2017-07-12T00:12:42.983Z,18.60
2017-07-12T00:15:10.395Z,18.60
2017-07-12T00:17:37.841Z,18.60
2017-07-12T00:20:05.259Z,18.60
2017-07-12T00:22:32.689Z,18.60
2017-07-12T00:25:00.104Z,18.60
2017-07-12T00:27:27.565Z,18.60
2017-07-12T00:29:55.011Z,18.50
2017-07-12T00:32:22.528Z,18.60
2017-07-12T00:34:49.949Z,18.50
2017-07-12T00:37:18.132Z,18.50
2017-07-12T00:39:45.565Z,18.50
2017-07-12T00:42:12.994Z,18.50
2017-07-12T00:44:40.416Z,18.50
2017-07-12T00:47:07.841Z,18.50
2017-07-12T00:49:35.456Z,18.50
2017-07-12T00:52:02.922Z,18.50
2017-07-12T00:54:30.372Z,18.50
2017-07-12T00:56:57.793Z,18.60
2017-07-12T00:59:25.232Z,18.60
2017-07-12T01:01:52.648Z,18.60
2017-07-12T01:04:20.076Z,18.60
2017-07-12T01:06:47.497Z,18.50
2017-07-12T01:09:15.696Z,18.50
2017-07-12T01:11:43.180Z,18.50
2017-07-12T01:14:10.601Z,18.50
2017-07-12T01:16:38.040Z,18.50
2017-07-12T01:19:05.465Z,18.50
2017-07-12T01:21:32.897Z,18.50
2017-07-12T01:24:00.307Z,18.50
2017-07-12T01:26:28.505Z,18.50
2017-07-12T01:28:55.925Z,18.50
2017-07-12T01:31:23.352Z,18.50
2017-07-12T01:33:50.768Z,18.50
2017-07-12T01:36:18.247Z,18.50
2017-07-12T01:38:45.669Z,18.50
2017-07-12T01:41:13.865Z,18.60
2017-07-12T01:43:41.286Z,18.60
2017-07-12T01:46:08.720Z,18.60
2017-07-12T01:48:36.132Z,18.60
2017-07-12T01:51:03.586Z,18.60
2017-07-12T01:53:31.016Z,18.60
2017-07-12T01:55:59.228Z,18.60
2017-07-12T01:58:26.649Z,18.60
2017-07-12T02:00:54.073Z,18.60
2017-07-12T02:03:21.509Z,18.50
2017-07-12T02:05:48.928Z,18.50
2017-07-12T02:08:16.360Z,18.60
2017-07-12T02:10:44.545Z,18.60
2017-07-12T02:13:11.986Z,18.60
2017-07-12T02:15:39.400Z,18.60
2017-07-12T02:18:06.833Z,18.60
2017-07-12T02:20:34.252Z,18.60
2017-07-12T02:23:02.460Z,18.60
2017-07-12T02:25:29.881Z,18.60
2017-07-12T02:27:57.317Z,18.60
2017-07-12T02:30:24.740Z,18.60
2017-07-12T02:32:52.164Z,18.70
2017-07-12T02:35:20.351Z,18.70
2017-07-12T02:37:47.785Z,18.60
2017-07-12T02:40:15.205Z,18.60
2017-07-12T02:42:42.630Z,18.70
2017-07-12T02:45:10.065Z,18.70
2017-07-12T02:47:37.504Z,18.70
2017-07-12T02:50:04.930Z,18.70
2017-07-12T02:52:32.349Z,18.60
2017-07-12T02:54:59.780Z,18.70
2017-07-12T02:57:27.205Z,18.70
2017-07-12T02:59:54.645Z,18.60
2017-07-12T03:02:22.060Z,18.60
2017-07-12T03:04:49.500Z,18.60
2017-07-12T03:07:16.918Z,18.60
2017-07-12T03:09:44.377Z,18.60
2017-07-12T03:12:11.804Z,18.60
2017-07-12T03:14:39.237Z,18.60
2017-07-12T03:17:06.660Z,18.60
2017-07-12T03:19:34.865Z,18.60
2017-07-12T03:22:02.285Z,18.60
2017-07-12T03:24:29.708Z,18.60
2017-07-12T03:26:57.144Z,18.60
2017-07-12T03:29:24.567Z,18.60
2017-07-12T03:31:52.761Z,18.60
2017-07-12T03:34:20.177Z,18.60
2017-07-12T03:36:47.613Z,18.60
2017-07-12T03:39:15.024Z,18.60
2017-07-12T03:41:42.479Z,18.60
2017-07-12T03:44:10.655Z,18.60
2017-07-12T03:46:38.085Z,18.60
2017-07-12T03:49:05.509Z,18.60
2017-07-12T03:51:32.962Z,18.60
2017-07-12T03:54:00.375Z,18.60
2017-07-12T03:56:27.808Z,18.60
2017-07-12T03:58:56.001Z,18.60
2017-07-12T04:01:23.420Z,18.60
2017-07-12T04:03:50.879Z,18.60
2017-07-12T04:06:18.302Z,18.50
2017-07-12T04:08:45.736Z,18.50
2017-07-12T04:11:13.148Z,18.50
2017-07-12T04:13:40.605Z,18.60
2017-07-12T04:16:08.017Z,18.60
2017-07-12T04:18:35.453Z,18.60
2017-07-12T04:21:02.864Z,18.60
2017-07-12T04:23:30.304Z,18.60
2017-07-12T04:25:57.715Z,18.60
2017-07-12T04:28:25.152Z,18.60
2017-07-12T04:30:52.577Z,18.60
2017-07-12T04:33:20.012Z,18.60
2017-07-12T04:35:47.473Z,18.60
2017-07-12T04:38:14.952Z,18.60
2017-07-12T04:40:42.374Z,18.60
2017-07-12T04:43:09.796Z,18.60
2017-07-12T04:45:38.021Z,18.70
2017-07-12T04:48:05.444Z,18.70
2017-07-12T04:50:32.878Z,18.70
2017-07-12T04:53:00.300Z,18.70
2017-07-12T04:55:27.769Z,18.70
2017-07-12T04:57:55.185Z,18.80
2017-07-12T05:00:22.682Z,18.80
2017-07-12T05:02:50.096Z,18.80
2017-07-12T05:05:17.533Z,18.80
2017-07-12T05:07:44.959Z,18.80
2017-07-12T05:10:12.383Z,18.80
2017-07-12T05:12:39.936Z,18.80
2017-07-12T05:15:07.374Z,18.80
2017-07-12T05:17:34.793Z,18.90
2017-07-12T05:20:02.999Z,18.90
2017-07-12T05:22:30.427Z,18.90
2017-07-12T05:24:57.872Z,18.90
2017-07-12T05:27:25.300Z,18.90
2017-07-12T05:29:52.737Z,18.90
2017-07-12T05:32:20.153Z,18.90
2017-07-12T05:34:47.679Z,18.90
2017-07-12T05:37:15.103Z,18.90
2017-07-12T05:39:42.544Z,18.80
2017-07-12T05:42:09.969Z,18.90
2017-07-12T05:44:38.157Z,18.90
2017-07-12T05:47:05.593Z,18.80
2017-07-12T05:49:33.008Z,18.90
2017-07-12T05:52:00.452Z,18.90
2017-07-12T05:54:27.883Z,18.90
2017-07-12T05:56:55.332Z,18.90
2017-07-12T05:59:22.754Z,18.90
2017-07-12T06:01:50.189Z,19.00
2017-07-12T06:04:17.737Z,19.00
2017-07-12T06:06:45.181Z,19.00
2017-07-12T06:09:12.616Z,18.90
2017-07-12T06:11:40.081Z,19.00
2017-07-12T06:14:07.603Z,19.00
2017-07-12T06:16:35.037Z,19.00
2017-07-12T06:19:02.471Z,19.00
2017-07-12T06:21:29.905Z,19.10
2017-07-12T06:23:57.336Z,19.10
2017-07-12T06:26:25.525Z,19.10
2017-07-12T06:28:52.961Z,19.10
2017-07-12T06:31:20.377Z,19.20
2017-07-12T06:33:47.824Z,19.20
2017-07-12T06:36:15.253Z,19.20
2017-07-12T06:38:42.713Z,19.20
2017-07-12T06:41:10.136Z,19.30
2017-07-12T06:43:38.365Z,19.30
2017-07-12T06:46:05.796Z,19.30
2017-07-12T06:48:33.240Z,19.40
2017-07-12T06:51:00.684Z,19.40
2017-07-12T06:53:28.120Z,19.40
2017-07-12T06:55:55.560Z,19.40
2017-07-12T06:58:22.976Z,19.50
2017-07-12T07:00:50.420Z,19.50
2017-07-12T07:03:18.613Z,19.60
2017-07-12T07:05:46.044Z,19.60
2017-07-12T07:08:13.526Z,19.60
2017-07-12T07:10:40.957Z,19.70
2017-07-12T07:13:08.387Z,19.70
2017-07-12T07:15:35.812Z,19.70
2017-07-12T07:18:03.236Z,19.80
2017-07-12T07:20:30.672Z,19.80
2017-07-12T07:23:04.748Z,19.90
2017-07-12T07:25:32.190Z,19.90
2017-07-12T07:27:59.596Z,19.90
2017-07-12T07:30:27.016Z,20.00
2017-07-12T07:32:54.449Z,20.10
2017-07-12T07:35:21.868Z,20.10
2017-07-12T07:37:49.772Z,20.20
2017-07-12T07:40:17.193Z,20.30
2017-07-12T07:42:44.680Z,20.30
2017-07-12T07:45:12.445Z,20.40
2017-07-12T07:47:39.869Z,20.50
2017-07-12T07:50:07.280Z,20.60
2017-07-12T07:52:34.716Z,20.70
2017-07-12T07:55:02.168Z,20.80
2017-07-12T07:57:29.610Z,20.90
2017-07-12T07:59:57.053Z,21.10
2017-07-12T08:02:24.496Z,21.20
2017-07-12T08:04:52.702Z,21.40
2017-07-12T08:07:20.120Z,21.40
2017-07-12T08:09:47.561Z,21.50
2017-07-12T08:12:14.973Z,21.50
2017-07-12T08:14:42.417Z,21.60
2017-07-12T08:17:09.851Z,21.70
2017-07-12T08:19:37.284Z,21.80
2017-07-12T08:22:04.715Z,21.80
2017-07-12T08:24:32.168Z,21.90
2017-07-12T08:26:59.588Z,21.90
2017-07-12T08:29:27.017Z,21.90
2017-07-12T08:31:54.435Z,21.90
2017-07-12T08:34:21.888Z,21.90
2017-07-12T08:36:49.327Z,21.90
2017-07-12T08:39:16.756Z,21.90
2017-07-12T08:41:44.182Z,22.00
2017-07-12T08:44:11.594Z,22.00
2017-07-12T08:46:39.024Z,22.10
2017-07-12T08:49:06.510Z,22.00
2017-07-12T08:51:33.940Z,22.10
2017-07-12T08:54:01.524Z,22.10
2017-07-12T08:56:28.960Z,22.00
2017-07-12T08:58:56.377Z,22.00
2017-07-12T09:01:23.813Z,21.90
2017-07-12T09:03:51.233Z,21.90
2017-07-12T09:06:18.666Z,21.90
2017-07-12T09:08:46.849Z,21.80
2017-07-12T09:11:14.268Z,21.80
2017-07-12T09:13:41.697Z,21.90
2017-07-12T09:16:09.116Z,21.90
2017-07-12T09:18:36.553Z,21.90
2017-07-12T09:21:04.740Z,21.80
2017-07-12T09:23:32.172Z,21.80
2017-07-12T09:33:22.653Z,21.40
2017-07-12T09:35:50.095Z,21.40
2017-07-12T09:38:17.881Z,21.30
2017-07-12T09:40:45.301Z,21.20
2017-07-12T09:43:12.716Z,21.10
2017-07-12T09:45:40.153Z,21.00
2017-07-12T09:48:07.589Z,20.90
2017-07-12T09:50:35.009Z,20.80
2017-07-12T09:53:03.212Z,20.80
2017-07-12T09:55:30.649Z,20.80
2017-07-12T09:57:58.069Z,20.90
2017-07-12T10:00:25.505Z,20.80
2017-07-12T10:02:53.065Z,20.80
2017-07-12T10:05:20.504Z,20.90
2017-07-12T10:07:47.929Z,20.90
2017-07-12T10:10:15.357Z,20.80
2017-07-12T10:12:42.776Z,20.70
2017-07-12T10:15:10.217Z,20.80
2017-07-12T10:17:37.656Z,20.70
2017-07-12T10:20:05.200Z,20.80
2017-07-12T10:22:32.711Z,20.80
2017-07-12T10:25:00.162Z,20.80
2017-07-12T10:27:27.589Z,20.80
2017-07-12T10:29:55.081Z,20.80
2017-07-12T10:32:22.504Z,20.70
2017-07-12T10:34:49.924Z,20.70
2017-07-12T10:37:17.356Z,20.70
2017-07-12T10:39:44.776Z,20.60
2017-07-12T10:42:12.217Z,20.60
2017-07-12T10:44:40.429Z,20.40
2017-07-12T10:47:07.865Z,20.40
2017-07-12T10:52:02.716Z,20.30
2017-07-12T10:54:30.141Z,20.30
2017-07-12T10:56:57.569Z,20.20
2017-07-12T10:59:25.757Z,20.30
2017-07-12T11:01:53.193Z,20.30
2017-07-12T11:04:20.611Z,20.30
2017-07-12T11:06:48.048Z,20.30
2017-07-12T11:09:15.469Z,20.40
2017-07-12T11:11:42.892Z,20.40
2017-07-12T11:14:10.324Z,20.40
2017-07-12T11:16:37.787Z,20.50
2017-07-12T11:19:05.230Z,20.50
2017-07-12T11:21:32.889Z,20.50
2017-07-12T11:24:00.328Z,20.50
2017-07-12T11:26:27.752Z,20.40
2017-07-12T11:28:55.182Z,20.30
2017-07-12T11:31:22.629Z,20.30
2017-07-12T11:33:50.038Z,20.30
2017-07-12T11:36:17.452Z,20.40
2017-07-12T11:38:44.893Z,20.40
2017-07-12T11:41:12.309Z,20.40
2017-07-12T11:43:39.740Z,20.50
2017-07-12T11:46:07.169Z,20.60
2017-07-12T11:48:34.613Z,20.70
2017-07-12T11:51:02.023Z,20.70
2017-07-12T11:53:29.464Z,20.70
2017-07-12T11:55:56.880Z,20.60
2017-07-12T11:58:24.305Z,20.60
2017-07-12T12:00:51.740Z,20.60
2017-07-12T12:03:19.159Z,20.60
2017-07-12T12:05:46.619Z,20.70
2017-07-12T12:08:14.039Z,20.70
2017-07-12T12:10:41.477Z,20.80
2017-07-12T12:13:09.026Z,20.80
2017-07-12T12:15:36.481Z,20.80
2017-07-12T12:18:03.901Z,20.80
2017-07-12T12:20:31.336Z,20.70
2017-07-12T12:22:58.984Z,20.80
2017-07-12T12:25:26.413Z,20.70
2017-07-12T12:27:53.833Z,20.70
2017-07-12T12:30:21.268Z,20.80
2017-07-12T12:32:48.685Z,20.80
2017-07-12T12:35:16.132Z,20.90
2017-07-12T12:37:43.581Z,20.90
2017-07-12T12:40:11.052Z,21.00
2017-07-12T12:42:38.463Z,21.10
2017-07-12T12:45:05.908Z,21.20
2017-07-12T12:47:33.344Z,21.40
2017-07-12T12:50:00.768Z,21.60
2017-07-12T12:52:28.340Z,21.70
2017-07-12T12:54:55.760Z,21.90
2017-07-12T12:57:23.965Z,21.90
2017-07-12T12:59:51.393Z,21.90
2017-07-12T13:02:18.821Z,22.00
2017-07-12T13:04:51.854Z,22.00
2017-07-12T13:07:19.288Z,22.00
2017-07-12T13:09:46.806Z,21.90
2017-07-12T13:12:14.229Z,21.90
2017-07-12T13:14:41.645Z,21.80
2017-07-12T13:17:09.089Z,21.80
2017-07-12T13:19:36.552Z,21.90
2017-07-12T13:22:03.971Z,21.80
2017-07-12T13:24:31.454Z,21.80
2017-07-12T13:26:58.876Z,21.90
2017-07-12T13:29:26.368Z,21.90
2017-07-12T13:31:53.789Z,22.00
2017-07-12T13:34:21.230Z,22.20
2017-07-12T13:36:48.813Z,22.20
2017-07-12T13:39:16.274Z,22.20
2017-07-12T13:41:43.681Z,22.20
2017-07-12T13:44:11.120Z,22.10
2017-07-12T13:46:38.537Z,22.10
2017-07-12T13:49:06.020Z,22.10
2017-07-12T13:51:33.476Z,22.20
2017-07-12T13:54:00.897Z,22.50
2017-07-12T13:56:28.324Z,22.70
2017-07-12T13:58:55.749Z,22.80
2017-07-12T14:01:23.317Z,23.00
2017-07-12T14:03:50.736Z,23.00
2017-07-12T14:06:18.168Z,23.00
2017-07-12T14:08:45.601Z,23.00
2017-07-12T14:11:13.818Z,23.10
2017-07-12T14:13:41.241Z,23.20
2017-07-12T14:16:08.677Z,23.20
2017-07-12T14:18:38.240Z,23.50
2017-07-12T14:21:05.716Z,24.10
2017-07-12T14:23:33.136Z,24.30
2017-07-12T14:26:00.572Z,24.20
2017-07-12T14:28:28.009Z,24.00
2017-07-12T14:30:56.200Z,23.90
2017-07-12T14:33:23.641Z,23.90
2017-07-12T14:35:51.061Z,23.70
2017-07-12T14:38:18.493Z,23.70
2017-07-12T14:40:45.914Z,23.70
2017-07-12T14:43:13.508Z,23.80
2017-07-12T14:45:40.931Z,23.90
2017-07-12T14:48:08.370Z,23.70
2017-07-12T14:50:35.795Z,23.60
2017-07-12T14:53:03.228Z,23.70
2017-07-12T14:55:30.656Z,23.70
2017-07-12T14:57:58.443Z,23.70
2017-07-12T15:00:25.836Z,24.00
2017-07-12T15:02:53.285Z,24.70
2017-07-12T15:05:20.693Z,25.50
2017-07-12T15:07:48.116Z,25.90
2017-07-12T15:10:15.556Z,26.00
2017-07-12T15:12:42.977Z,25.70
2017-07-12T15:15:10.404Z,25.80
2017-07-12T15:17:37.820Z,26.40
2017-07-12T15:20:05.273Z,27.10
2017-07-12T15:22:32.683Z,27.00
2017-07-12T15:25:00.120Z,27.40
2017-07-12T15:27:27.541Z,27.20
2017-07-12T15:29:54.985Z,27.10
2017-07-12T15:32:22.400Z,27.20
2017-07-12T15:34:50.017Z,27.20
2017-07-12T15:37:17.433Z,27.40
2017-07-12T15:39:44.890Z,27.60
2017-07-12T15:42:12.351Z,27.80
2017-07-12T15:44:40.114Z,27.70
2017-07-12T15:47:08.086Z,27.30
2017-07-12T15:49:35.524Z,27.40
2017-07-12T15:52:04.593Z,27.80
2017-07-12T15:54:32.801Z,28.20
2017-07-12T15:57:00.237Z,28.20
2017-07-12T15:59:27.672Z,28.30
2017-07-12T16:01:55.140Z,28.20
2017-07-12T16:04:22.562Z,28.00
2017-07-12T16:06:49.996Z,28.10
2017-07-12T16:09:17.417Z,28.10
2017-07-12T16:11:44.858Z,28.20
2017-07-12T16:14:13.044Z,27.70
2017-07-12T16:16:40.477Z,27.70
2017-07-12T16:19:07.888Z,27.60
2017-07-12T16:21:35.326Z,27.30
2017-07-12T16:24:02.752Z,26.70
2017-07-12T16:26:30.959Z,26.30
2017-07-12T16:28:58.393Z,26.30
2017-07-12T16:31:25.809Z,26.00
2017-07-12T16:33:54.017Z,26.00
2017-07-12T16:36:21.717Z,26.00
2017-07-12T16:38:49.163Z,26.20
2017-07-12T16:41:16.588Z,26.30
2017-07-12T16:43:44.025Z,26.50
2017-07-12T16:46:11.449Z,26.60
2017-07-12T16:48:38.889Z,26.60
2017-07-12T16:51:06.320Z,26.60
2017-07-12T16:53:33.744Z,26.60
2017-07-12T16:56:02.448Z,26.60
2017-07-12T16:58:30.644Z,26.70
2017-07-12T17:00:58.065Z,26.70
2017-07-12T17:03:26.849Z,26.70
2017-07-12T17:05:55.374Z,26.50
2017-07-12T17:08:22.794Z,26.50
2017-07-12T17:10:50.996Z,26.30
2017-07-12T17:13:18.413Z,26.30
2017-07-12T17:15:45.861Z,26.20
2017-07-12T17:18:13.287Z,26.10
2017-07-12T17:20:40.716Z,26.00
2017-07-12T17:23:08.132Z,25.90
2017-07-12T17:25:36.341Z,25.60
2017-07-12T17:28:03.776Z,25.50
2017-07-12T17:30:31.217Z,25.50
2017-07-12T17:32:58.643Z,25.40
2017-07-12T17:35:26.082Z,25.30
2017-07-12T17:37:53.504Z,25.30
2017-07-12T17:40:21.706Z,25.10
2017-07-12T17:42:49.121Z,25.10
2017-07-12T17:45:16.557Z,25.00
2017-07-12T17:47:43.987Z,24.80
2017-07-12T17:50:11.461Z,24.80
2017-07-12T17:52:38.888Z,24.80
2017-07-12T17:55:06.313Z,24.70
2017-07-12T17:57:34.516Z,24.40
2017-07-12T18:00:01.932Z,24.30
2017-07-12T18:02:29.369Z,24.10
2017-07-12T18:04:56.788Z,24.10
2017-07-12T18:07:24.216Z,24.10
2017-07-12T18:09:51.632Z,23.90
2017-07-12T18:12:19.068Z,23.80
2017-07-12T18:14:46.490Z,23.70
2017-07-12T18:17:13.932Z,23.60
2017-07-12T18:19:41.340Z,23.60
2017-07-12T18:22:08.800Z,23.40
2017-07-12T18:24:36.223Z,23.30
2017-07-12T18:27:03.650Z,23.30
2017-07-12T18:29:31.084Z,23.20
2017-07-12T18:31:58.528Z,23.10
2017-07-12T18:34:26.004Z,23.10
2017-07-12T18:36:53.421Z,22.90
2017-07-12T18:39:20.869Z,22.80
2017-07-12T18:41:48.293Z,22.90
2017-07-12T18:44:15.722Z,22.90
2017-07-12T18:46:43.914Z,22.70
2017-07-12T18:49:11.349Z,22.70
2017-07-12T18:51:38.774Z,22.60
2017-07-12T18:54:06.212Z,22.70
2017-07-12T18:56:33.623Z,22.70
2017-07-12T18:59:01.834Z,22.50
2017-07-12T19:01:29.263Z,22.50
2017-07-12T19:03:56.719Z,22.40
2017-07-12T19:06:24.416Z,22.30
2017-07-12T19:08:51.837Z,22.30
2017-07-12T19:11:19.276Z,22.20
2017-07-12T19:13:46.709Z,22.20
2017-07-12T19:16:14.124Z,22.10
2017-07-12T19:18:41.598Z,22.10
2017-07-12T19:21:08.999Z,22.00
2017-07-12T19:23:36.626Z,21.80
2017-07-12T19:26:04.185Z,21.80
2017-07-12T19:28:31.604Z,21.70
2017-07-12T19:30:59.041Z,21.60
2017-07-12T19:33:26.456Z,21.60
2017-07-12T19:35:53.912Z,21.60
2017-07-12T19:38:21.321Z,21.50
2017-07-12T19:40:48.757Z,21.50
2017-07-12T19:43:16.946Z,21.40
2017-07-12T19:45:44.436Z,21.30
2017-07-12T19:48:11.857Z,21.20
2017-07-12T19:50:39.279Z,21.20
2017-07-12T19:53:06.797Z,21.10
2017-07-12T19:55:34.234Z,21.00
2017-07-12T19:58:01.649Z,21.00
2017-07-12T20:00:29.105Z,20.80
2017-07-12T20:02:56.526Z,20.80
2017-07-12T20:05:23.949Z,20.80
2017-07-12T20:07:51.385Z,20.70
2017-07-12T20:10:19.573Z,20.60
2017-07-12T20:12:47.013Z,20.60
2017-07-12T20:15:14.433Z,20.50
2017-07-12T20:17:41.869Z,20.50
2017-07-12T20:20:09.288Z,20.50
2017-07-12T20:22:37.495Z,20.40
2017-07-12T20:25:04.916Z,20.40
2017-07-12T20:27:32.355Z,20.40
2017-07-12T20:29:59.782Z,20.40
2017-07-12T20:32:27.329Z,20.30
2017-07-12T20:34:54.748Z,20.30
2017-07-12T20:37:22.182Z,20.30
2017-07-12T20:39:49.609Z,20.20
2017-07-12T20:42:17.040Z,20.10
2017-07-12T20:44:44.452Z,20.10
2017-07-12T20:47:12.656Z,20.00
2017-07-12T20:49:40.076Z,20.00
2017-07-12T20:52:07.513Z,19.90
2017-07-12T20:54:34.933Z,19.80
2017-07-12T20:57:02.356Z,19.80
2017-07-12T20:59:30.561Z,19.70
2017-07-12T21:01:57.981Z,19.70
2017-07-12T21:04:25.417Z,19.60
2017-07-12T21:06:52.845Z,19.50
2017-07-12T21:09:20.268Z,19.40
2017-07-12T21:11:47.684Z,19.40
2017-07-12T21:14:15.129Z,19.30
2017-07-12T21:16:42.543Z,19.30
2017-07-12T21:19:09.984Z,19.20
2017-07-12T21:21:37.405Z,19.20
2017-07-12T21:24:04.832Z,19.20
2017-07-12T21:26:32.261Z,19.10
2017-07-12T21:28:59.698Z,19.10
2017-07-12T21:31:27.116Z,19.00
2017-07-12T21:33:54.553Z,18.90
2017-07-12T21:36:21.984Z,18.90
2017-07-12T21:38:49.501Z,18.90
2017-07-12T21:41:16.941Z,18.80
2017-07-12T21:43:44.485Z,18.70
2017-07-12T21:46:11.925Z,18.70
2017-07-12T21:48:39.341Z,18.60
2017-07-12T21:51:06.776Z,18.60
2017-07-12T21:53:51.661Z,18.50
2017-07-12T21:56:37.489Z,18.40
2017-07-12T21:59:22.342Z,18.40
2017-07-12T22:02:07.401Z,18.30
2017-07-12T22:04:52.349Z,18.30
2017-07-12T22:07:37.438Z,18.30
2017-07-12T22:10:22.297Z,18.30
2017-07-12T22:13:07.392Z,18.30
2017-07-12T22:15:52.237Z,18.20
2017-07-12T22:18:37.280Z,18.10
2017-07-12T22:21:22.997Z,17.90
2017-07-12T22:24:07.860Z,17.90
2017-07-12T22:26:59.736Z,17.70
2017-07-12T22:29:44.699Z,17.60
2017-07-12T22:32:29.755Z,17.50
2017-07-12T22:35:14.658Z,17.50
2017-07-12T22:37:48.278Z,17.60
2017-07-12T22:40:21.364Z,17.60
2017-07-12T22:42:54.497Z,17.60
2017-07-12T22:45:21.917Z,17.60
2017-07-12T22:47:49.356Z,17.50
2017-07-12T22:50:16.773Z,17.40
2017-07-12T22:52:44.202Z,17.40
2017-07-12T22:55:11.619Z,17.40
2017-07-12T22:57:39.811Z,17.40
2017-07-12T23:00:07.233Z,17.30
2017-07-12T23:02:34.665Z,17.30
2017-07-12T23:05:02.075Z,17.30
2017-07-12T23:07:29.507Z,17.20
2017-07-12T23:09:57.697Z,17.10
2017-07-12T23:12:25.128Z,17.10
2017-07-12T23:14:52.555Z,17.10
2017-07-12T23:17:19.972Z,17.00
2017-07-12T23:19:47.400Z,17.00
2017-07-12T23:22:15.588Z,17.00
2017-07-12T23:24:43.025Z,17.00
2017-07-12T23:27:10.544Z,17.10
2017-07-12T23:29:37.976Z,17.10
2017-07-12T23:32:05.393Z,17.00
2017-07-12T23:34:32.833Z,16.90
2017-07-12T23:37:00.255Z,16.80
2017-07-12T23:39:27.693Z,16.60
2017-07-12T23:41:55.113Z,16.50
2017-07-12T23:44:22.545Z,16.40
2017-07-12T23:46:49.969Z,16.30
2017-07-12T23:49:17.404Z,16.30
2017-07-12T23:51:44.829Z,16.30
2017-07-12T23:54:12.254Z,16.20
2017-07-12T23:56:39.685Z,16.20
2017-07-12T23:59:07.103Z,16.10
